createdAt,value
2018-09-17T00:02:16.181Z,86.15
2018-09-17T00:04:45.396Z,86.29
2018-09-17T00:07:14.730Z,86.10
2018-09-17T00:09:44.051Z,86.33
2018-09-17T00:12:13.073Z,85.85
2018-09-17T00:14:42.081Z,86.47
2018-09-17T00:17:11.632Z,85.98
2018-09-17T00:19:40.886Z,86.33
2018-09-17T00:22:10.013Z,85.92
2018-09-17T00:24:39.179Z,86.27
2018-09-17T00:27:08.469Z,86.12
2018-09-17T00:29:37.789Z,85.63
2018-09-17T00:32:07.045Z,85.83
2018-09-17T00:34:36.475Z,85.41
2018-09-17T00:37:05.587Z,85.62
2018-09-17T00:39:34.870Z,85.71
2018-09-17T00:42:04.441Z,85.73
2018-09-17T00:44:33.591Z,85.36
2018-09-17T00:47:02.853Z,85.77
2018-09-17T00:49:32.083Z,85.42
2018-09-17T00:52:01.289Z,85.31
2018-09-17T00:54:30.604Z,85.28
2018-09-17T00:56:59.872Z,85.58
2018-09-17T00:59:29.060Z,85.34
2018-09-17T01:01:58.570Z,85.26
2018-09-17T01:04:27.904Z,85.48
2018-09-17T01:06:57.187Z,84.80
2018-09-17T01:09:31.529Z,84.71
2018-09-17T01:12:00.929Z,85.02
2018-09-17T01:14:30.190Z,85.08
2018-09-17T01:16:59.404Z,84.81
2018-09-17T01:19:28.813Z,84.45
2018-09-17T01:21:58.204Z,84.41
2018-09-17T01:24:27.523Z,84.12
2018-09-17T01:26:56.817Z,84.07
2018-09-17T01:29:25.984Z,84.13
2018-09-17T01:31:55.396Z,83.84
2018-09-17T01:34:24.526Z,84.00
2018-09-17T01:36:53.818Z,84.05
2018-09-17T01:39:23.293Z,83.39
2018-09-17T01:41:52.667Z,83.21
2018-09-17T01:44:22.198Z,82.96
2018-09-17T01:46:51.415Z,83.42
2018-09-17T01:49:20.824Z,82.87
2018-09-17T01:51:50.148Z,82.79
2018-09-17T01:54:19.632Z,83.01
2018-09-17T01:56:49.042Z,82.92
2018-09-17T01:59:18.238Z,82.36
2018-09-17T02:01:47.533Z,82.72
2018-09-17T02:04:17.057Z,81.86
2018-09-17T02:06:46.357Z,81.97
2018-09-17T02:09:15.537Z,81.87
2018-09-17T02:11:44.945Z,81.20
2018-09-17T02:14:14.243Z,81.37
2018-09-17T02:16:43.302Z,81.38
2018-09-17T02:19:12.736Z,80.65
2018-09-17T02:21:42.233Z,80.65
2018-09-17T02:24:11.430Z,80.53
2018-09-17T02:26:40.835Z,80.61
2018-09-17T02:29:10.158Z,80.33
2018-09-17T02:31:39.435Z,80.09
2018-09-17T02:34:08.962Z,79.88
2018-09-17T02:36:38.315Z,79.82
2018-09-17T02:39:08.727Z,79.89
2018-09-17T02:41:38.226Z,79.79
2018-09-17T02:44:07.597Z,79.60
2018-09-17T02:46:36.975Z,79.87
2018-09-17T02:49:06.366Z,79.77
2018-09-17T02:51:35.466Z,79.10
2018-09-17T02:54:05.359Z,79.33
2018-09-17T02:56:35.594Z,79.55
2018-09-17T02:59:05.161Z,79.57
2018-09-17T03:01:34.044Z,79.34
2018-09-17T03:04:03.498Z,79.48
2018-09-17T03:06:32.787Z,79.06
2018-09-17T03:09:01.984Z,78.50
2018-09-17T03:11:31.768Z,79.18
2018-09-17T03:14:01.023Z,78.74
2018-09-17T03:16:30.184Z,79.00
2018-09-17T03:18:59.402Z,79.13
2018-09-17T03:21:28.629Z,78.47
2018-09-17T03:23:57.668Z,78.77
2018-09-17T03:26:27.331Z,78.44
2018-09-17T03:28:56.752Z,78.72
2018-09-17T03:31:26.042Z,78.58
2018-09-17T03:33:55.585Z,78.32
2018-09-17T03:36:24.870Z,78.57
2018-09-17T03:38:54.028Z,77.56
2018-09-17T03:41:23.243Z,78.07
2018-09-17T03:43:53.006Z,77.29
2018-09-17T03:46:22.290Z,76.79
2018-09-17T03:48:51.782Z,76.94
2018-09-17T03:51:21.246Z,76.54
2018-09-17T03:53:50.411Z,75.97
2018-09-17T03:56:19.915Z,76.05
2018-09-17T03:58:49.462Z,75.70
2018-09-17T04:01:18.465Z,76.32
2018-09-17T04:03:47.852Z,76.12
2018-09-17T04:06:17.214Z,75.55
2018-09-17T04:08:46.532Z,75.64
2018-09-17T04:11:15.934Z,75.55
2018-09-17T04:13:45.150Z,74.50
2018-09-17T04:16:14.506Z,74.06
2018-09-17T04:18:43.909Z,74.90
2018-09-17T04:21:12.969Z,74.44
2018-09-17T04:23:42.354Z,75.05
2018-09-17T04:26:12.421Z,74.30
2018-09-17T04:28:41.746Z,74.65
2018-09-17T04:31:10.936Z,74.62
2018-09-17T04:33:42.888Z,75.56
2018-09-17T04:36:12.789Z,76.39
2018-09-17T04:38:42.243Z,76.62
2018-09-17T04:41:11.608Z,77.37
2018-09-17T04:43:40.904Z,77.87
2018-09-17T04:46:10.330Z,78.26
2018-09-17T04:48:39.429Z,78.38
2018-09-17T04:51:08.614Z,79.03
2018-09-17T04:53:37.907Z,79.73
2018-09-17T04:56:07.290Z,79.06
2018-09-17T04:58:36.532Z,77.42
2018-09-17T05:01:06.567Z,77.00
2018-09-17T05:03:35.718Z,76.75
2018-09-17T05:06:05.623Z,76.23
2018-09-17T05:08:35.174Z,75.27
2018-09-17T05:11:04.498Z,75.09
2018-09-17T05:13:33.741Z,75.00
2018-09-17T05:16:03.098Z,74.49
2018-09-17T05:18:32.327Z,74.27
2018-09-17T05:21:01.638Z,74.39
2018-09-17T05:23:31.051Z,74.17
2018-09-17T05:26:00.395Z,74.32
2018-09-17T05:28:29.669Z,75.06
2018-09-17T05:30:59.204Z,75.02
2018-09-17T05:33:28.257Z,74.58
2018-09-17T05:35:57.405Z,74.74
2018-09-17T05:38:26.890Z,74.52
2018-09-17T05:40:56.244Z,74.65
2018-09-17T05:43:25.494Z,74.67
2018-09-17T05:45:55.162Z,74.07
2018-09-17T05:48:25.528Z,74.13
2018-09-17T05:50:54.837Z,74.14
2018-09-17T05:53:24.594Z,73.94
2018-09-17T05:55:53.841Z,73.57
2018-09-17T05:58:23.542Z,74.14
2018-09-17T06:00:53.397Z,73.85
2018-09-17T06:03:22.922Z,74.04
2018-09-17T06:05:52.209Z,74.26
2018-09-17T06:08:22.113Z,74.54
2018-09-17T06:10:51.299Z,75.17
2018-09-17T06:13:21.316Z,75.89
2018-09-17T06:15:50.892Z,76.73
2018-09-17T06:18:20.378Z,76.90
2018-09-17T06:20:49.762Z,76.89
2018-09-17T06:23:19.344Z,76.86
2018-09-17T06:25:48.468Z,75.96
2018-09-17T06:28:17.710Z,75.51
2018-09-17T06:30:47.236Z,74.82
2018-09-17T06:33:16.604Z,74.38
2018-09-17T06:35:45.947Z,73.80
2018-09-17T06:38:15.270Z,74.67
2018-09-17T06:40:44.671Z,74.00
2018-09-17T06:43:13.924Z,74.22
2018-09-17T06:45:43.177Z,74.20
2018-09-17T06:48:12.513Z,73.87
2018-09-17T06:50:41.905Z,73.08
2018-09-17T06:53:11.057Z,73.01
2018-09-17T06:55:40.384Z,73.30
2018-09-17T06:58:09.629Z,72.93
2018-09-17T07:00:39.042Z,72.72
2018-09-17T07:03:08.301Z,72.55
2018-09-17T07:05:37.560Z,71.63
2018-09-17T07:08:07.314Z,71.10
2018-09-17T07:10:36.720Z,70.00
2018-09-17T07:13:06.632Z,69.74
2018-09-17T07:15:36.183Z,69.65
2018-09-17T07:18:05.174Z,69.48
2018-09-17T07:20:34.376Z,66.89
2018-09-17T07:23:04.209Z,67.52
2018-09-17T07:25:33.678Z,67.21
2018-09-17T07:28:03.659Z,66.96
2018-09-17T07:30:32.811Z,67.45
2018-09-17T07:33:02.174Z,67.36
2018-09-17T07:35:31.518Z,67.14
2018-09-17T07:38:00.659Z,67.21
2018-09-17T07:40:30.143Z,65.54
2018-09-17T07:42:59.629Z,66.11
2018-09-17T07:45:29.288Z,65.47
2018-09-17T07:47:58.523Z,65.29
2018-09-17T07:50:27.829Z,65.67
2018-09-17T07:52:57.139Z,66.02
2018-09-17T07:55:26.379Z,66.54
2018-09-17T07:57:55.499Z,66.61
2018-09-17T08:00:24.870Z,67.13
2018-09-17T08:02:54.071Z,67.49
2018-09-17T08:05:23.329Z,67.56
2018-09-17T08:07:52.744Z,66.47
2018-09-17T08:10:25.808Z,66.78
2018-09-17T08:12:55.484Z,67.39
2018-09-17T08:15:24.720Z,67.34
2018-09-17T08:17:54.042Z,66.75
2018-09-17T08:20:23.612Z,67.03
2018-09-17T08:22:52.800Z,66.53
2018-09-17T08:25:22.166Z,66.44
2018-09-17T08:27:51.708Z,66.35
2018-09-17T08:30:21.154Z,65.36
2018-09-17T08:35:59.172Z,64.92
2018-09-17T08:38:28.606Z,64.68
2018-09-17T08:40:58.000Z,64.05
2018-09-17T08:43:27.271Z,63.35
2018-09-17T08:45:56.588Z,63.61
2018-09-17T08:48:26.140Z,62.70
2018-09-17T08:50:55.572Z,62.05
2018-09-17T08:53:25.537Z,61.37
2018-09-17T08:56:05.130Z,61.50
2018-09-17T08:59:11.169Z,61.79
2018-09-17T09:01:45.564Z,60.73
2018-09-17T09:04:31.715Z,60.17
2018-09-17T09:07:06.394Z,60.89
2018-09-17T09:09:35.757Z,60.40
2018-09-17T09:12:10.380Z,61.22
2018-09-17T09:14:40.482Z,61.21
2018-09-17T09:17:11.424Z,61.45
2018-09-17T09:19:40.896Z,61.44
2018-09-17T09:22:10.136Z,60.28
2018-09-17T09:24:39.630Z,60.21
2018-09-17T09:27:09.170Z,58.71
2018-09-17T09:29:38.503Z,58.53
2018-09-17T09:32:07.911Z,56.33
2018-09-17T09:34:37.337Z,56.96
2018-09-17T09:37:06.799Z,56.46
2018-09-17T09:39:36.122Z,56.25
2018-09-17T09:42:05.581Z,55.70
2018-09-17T09:44:34.975Z,57.03
2018-09-17T09:47:04.258Z,57.35
2018-09-17T09:49:33.745Z,57.46
2018-09-17T09:52:03.294Z,57.99
2018-09-17T09:54:32.541Z,58.53
2018-09-17T09:57:01.874Z,58.01
2018-09-17T09:59:31.383Z,57.99
2018-09-17T10:02:05.698Z,58.58
2018-09-17T10:04:35.233Z,58.38
2018-09-17T10:07:04.524Z,58.72
2018-09-17T10:09:38.931Z,58.73
2018-09-17T10:12:13.204Z,58.30
2018-09-17T10:14:47.536Z,58.33
2018-09-17T10:17:21.829Z,58.04
2018-09-17T10:19:52.465Z,59.03
2018-09-17T10:22:21.819Z,59.40
2018-09-17T10:24:51.203Z,59.67
2018-09-17T10:27:20.827Z,59.59
2018-09-17T10:29:49.991Z,60.14
2018-09-17T10:32:19.578Z,60.58
2018-09-17T10:34:49.368Z,61.52
2018-09-17T10:37:18.796Z,61.50
2018-09-17T10:39:48.190Z,62.17
2018-09-17T10:42:17.568Z,61.78
2018-09-17T10:44:46.615Z,62.17
2018-09-17T10:47:15.860Z,62.32
2018-09-17T10:49:45.380Z,61.87
2018-09-17T10:52:14.594Z,60.83
2018-09-17T10:54:43.870Z,61.12
2018-09-17T10:57:13.554Z,61.17
2018-09-17T10:59:42.903Z,61.22
2018-09-17T11:02:12.011Z,60.92
2018-09-17T11:04:41.413Z,60.77
2018-09-17T11:07:10.656Z,60.58
2018-09-17T11:09:39.697Z,59.66
2018-09-17T11:12:09.212Z,59.36
2018-09-17T11:14:38.414Z,60.81
2018-09-17T11:17:07.672Z,60.65
2018-09-17T11:19:37.063Z,60.21
2018-09-17T11:22:06.363Z,59.20
2018-09-17T11:24:35.528Z,58.26
2018-09-17T11:27:05.390Z,57.93
2018-09-17T11:29:34.552Z,57.85
2018-09-17T11:32:04.122Z,58.00
2018-09-17T11:34:33.991Z,57.92
2018-09-17T11:37:03.578Z,58.21
2018-09-17T11:39:32.798Z,58.32
2018-09-17T11:42:02.190Z,58.46
2018-09-17T11:44:31.502Z,58.98
2018-09-17T11:47:07.526Z,58.68
2018-09-17T11:49:36.757Z,59.27
2018-09-17T11:52:06.542Z,58.88
2018-09-17T11:54:35.925Z,58.47
2018-09-17T11:57:05.161Z,59.01
2018-09-17T11:59:34.488Z,59.15
2018-09-17T12:02:04.889Z,59.51
2018-09-17T12:04:39.373Z,59.85
2018-09-17T12:07:14.133Z,58.65
2018-09-17T12:09:43.758Z,58.66
2018-09-17T12:12:12.905Z,58.86
2018-09-17T12:14:42.164Z,58.27
2018-09-17T12:17:11.628Z,58.58
2018-09-17T12:19:40.843Z,59.17
2018-09-17T12:22:10.326Z,58.98
2018-09-17T12:24:39.607Z,57.72
2018-09-17T12:27:09.015Z,56.91
2018-09-17T12:29:38.319Z,57.94
2018-09-17T12:32:07.389Z,57.77
2018-09-17T12:34:36.976Z,57.90
2018-09-17T12:37:06.216Z,58.58
2018-09-17T12:39:35.611Z,58.35
2018-09-17T12:42:04.835Z,58.27
2018-09-17T12:44:34.117Z,58.63
2018-09-17T12:47:03.803Z,58.69
2018-09-17T12:49:32.995Z,58.85
2018-09-17T12:52:02.179Z,58.61
2018-09-17T12:54:31.689Z,57.99
2018-09-17T12:57:00.971Z,58.38
2018-09-17T12:59:30.309Z,58.32
2018-09-17T13:01:59.547Z,58.67
2018-09-17T13:04:28.740Z,58.01
2018-09-17T13:06:58.058Z,58.35
2018-09-17T13:09:27.521Z,58.37
2018-09-17T13:11:56.890Z,58.45
2018-09-17T13:14:26.178Z,59.11
2018-09-17T13:16:55.663Z,58.84
2018-09-17T13:19:25.029Z,58.82
2018-09-17T13:21:54.342Z,58.62
2018-09-17T13:24:24.285Z,58.21
2018-09-17T13:26:53.467Z,58.06
2018-09-17T13:29:23.208Z,57.92
2018-09-17T13:31:52.905Z,57.74
2018-09-17T13:34:36.268Z,57.61
2018-09-17T13:37:06.840Z,57.80
2018-09-17T13:39:36.552Z,57.64
2018-09-17T13:42:06.022Z,57.49
2018-09-17T13:44:35.612Z,57.66
2018-09-17T13:47:05.000Z,57.02
2018-09-17T13:49:34.334Z,57.23
2018-09-17T13:52:04.043Z,57.71
2018-09-17T13:54:33.567Z,57.14
2018-09-17T13:57:03.326Z,57.65
2018-09-17T13:59:32.765Z,58.23
2018-09-17T14:02:02.288Z,57.88
2018-09-17T14:04:32.580Z,58.70
2018-09-17T14:07:02.257Z,58.95
2018-09-17T14:09:31.828Z,59.02
2018-09-17T14:12:01.256Z,59.02
2018-09-17T14:14:30.965Z,60.11
2018-09-17T14:17:00.407Z,60.14
2018-09-17T14:19:29.743Z,60.77
2018-09-17T14:21:59.349Z,60.42
2018-09-17T14:24:28.640Z,60.89
2018-09-17T14:26:58.214Z,60.73
2018-09-17T14:29:27.913Z,60.00
2018-09-17T14:32:02.388Z,60.28
2018-09-17T14:34:31.678Z,59.82
2018-09-17T14:37:01.456Z,60.10
2018-09-17T14:39:31.651Z,60.06
2018-09-17T14:42:01.367Z,60.16
2018-09-17T14:44:30.681Z,60.58
2018-09-17T14:46:59.997Z,60.46
2018-09-17T14:49:29.350Z,60.36
2018-09-17T14:51:59.014Z,60.88
2018-09-17T14:54:28.417Z,60.40
2018-09-17T14:56:58.033Z,61.03
2018-09-17T14:59:27.373Z,60.70
2018-09-17T15:04:29.338Z,60.14
2018-09-17T15:06:58.838Z,60.17
2018-09-17T15:09:28.271Z,60.29
2018-09-17T15:11:58.071Z,60.03
2018-09-17T15:14:27.626Z,60.79
2018-09-17T15:16:57.157Z,61.05
2018-09-17T15:19:26.870Z,60.83
2018-09-17T15:21:56.444Z,60.95
2018-09-17T15:24:26.044Z,61.48
2018-09-17T15:26:55.850Z,61.74
2018-09-17T15:29:25.544Z,62.03
2018-09-17T15:31:54.972Z,62.92
2018-09-17T15:34:24.578Z,62.85
2018-09-17T15:36:54.100Z,62.53
2018-09-17T15:39:23.556Z,62.91
2018-09-17T15:41:53.310Z,63.15
2018-09-17T15:44:23.304Z,63.17
2018-09-17T15:46:52.299Z,63.49
2018-09-17T15:49:22.426Z,63.75
2018-09-17T15:51:52.331Z,63.99
2018-09-17T15:54:21.516Z,64.02
2018-09-17T15:56:50.941Z,63.72
2018-09-17T15:59:20.334Z,64.25
2018-09-17T16:01:50.176Z,64.76
2018-09-17T16:04:21.358Z,64.45
2018-09-17T16:06:50.907Z,64.67
2018-09-17T16:09:21.296Z,65.12
2018-09-17T16:11:50.909Z,65.21
2018-09-17T16:14:20.893Z,65.76
2018-09-17T16:16:51.451Z,65.64
2018-09-17T16:19:21.349Z,66.40
2018-09-17T16:21:51.218Z,66.84
2018-09-17T16:24:21.096Z,67.22
2018-09-17T16:26:50.690Z,67.42
2018-09-17T16:29:20.362Z,67.38
2018-09-17T16:31:50.140Z,67.37
2018-09-17T16:34:19.470Z,67.79
2018-09-17T16:36:49.057Z,67.98
2018-09-17T16:39:19.052Z,68.40
2018-09-17T16:41:48.870Z,68.36
2018-09-17T16:44:18.748Z,68.69
2018-09-17T16:46:48.309Z,68.82
2018-09-17T16:49:18.001Z,68.75
2018-09-17T16:51:48.315Z,68.80
2018-09-17T16:54:18.450Z,69.06
2018-09-17T16:56:47.960Z,69.18
2018-09-17T16:59:17.888Z,68.91
2018-09-17T17:01:47.664Z,69.36
2018-09-17T17:04:17.234Z,69.45
2018-09-17T17:06:46.926Z,70.27
2018-09-17T17:09:16.962Z,69.88
2018-09-17T17:11:47.084Z,70.28
2018-09-17T17:14:16.522Z,70.44
2018-09-17T17:16:46.540Z,70.49
2018-09-17T17:19:16.099Z,70.87
2018-09-17T17:21:46.305Z,70.85
2018-09-17T17:24:16.278Z,70.42
2018-09-17T17:26:46.829Z,70.66
2018-09-17T17:29:16.482Z,71.12
2018-09-17T17:31:46.100Z,70.55
2018-09-17T17:34:16.468Z,71.16
2018-09-17T17:36:46.523Z,70.98
2018-09-17T17:39:16.912Z,71.25
2018-09-17T17:41:46.617Z,71.47
2018-09-17T17:44:17.381Z,71.67
2018-09-17T17:46:47.650Z,71.13
2018-09-17T17:49:18.370Z,72.01
2018-09-17T17:51:48.442Z,71.88
2018-09-17T17:54:18.527Z,71.78
2018-09-17T17:56:48.485Z,71.25
2018-09-17T17:59:18.176Z,71.48
2018-09-17T18:01:49.440Z,71.49
2018-09-17T18:04:19.426Z,71.60
2018-09-17T18:06:49.592Z,71.64
2018-09-17T18:09:21.204Z,71.93
2018-09-17T18:11:50.874Z,71.89
2018-09-17T18:14:21.633Z,71.41
2018-09-17T18:16:51.391Z,71.82
2018-09-17T18:19:21.641Z,72.12
2018-09-17T18:21:52.124Z,71.37
2018-09-17T18:24:23.182Z,71.84
2018-09-17T18:26:52.565Z,72.06
2018-09-17T18:29:22.257Z,71.96
2018-09-17T18:31:52.223Z,71.82
2018-09-17T18:34:22.351Z,72.29
2018-09-17T18:36:58.536Z,71.56
2018-09-17T18:43:01.467Z,71.62
2018-09-17T18:45:31.973Z,72.01
2018-09-17T18:48:02.350Z,72.05
2018-09-17T18:50:32.811Z,71.51
2018-09-17T18:53:02.454Z,72.18
2018-09-17T18:55:32.429Z,71.95
2018-09-17T18:58:02.375Z,72.15
2018-09-17T19:00:33.179Z,72.12
2018-09-17T19:03:02.903Z,71.86
2018-09-17T19:05:34.918Z,71.39
2018-09-17T19:08:04.398Z,71.86
2018-09-17T19:10:34.941Z,71.52
2018-09-17T19:13:04.469Z,71.39
2018-09-17T19:15:39.506Z,70.98
2018-09-17T19:18:14.217Z,70.97
2018-09-17T19:20:44.149Z,70.54
2018-09-17T19:23:18.633Z,70.33
2018-09-17T19:25:48.586Z,70.53
2018-09-17T19:28:23.175Z,70.24
2018-09-17T19:30:53.344Z,70.21
2018-09-17T19:33:23.981Z,70.10
2018-09-17T19:35:53.449Z,70.36
2018-09-17T19:38:28.684Z,70.06
2018-09-17T19:40:58.676Z,70.62
2018-09-17T19:43:28.366Z,70.39
2018-09-17T19:46:03.343Z,70.20
2018-09-17T19:48:32.813Z,69.84
2018-09-17T19:51:07.631Z,70.47
2018-09-17T19:53:37.362Z,70.35
2018-09-17T19:56:07.141Z,70.58
2018-09-17T19:58:41.577Z,70.87
2018-09-17T20:01:11.770Z,71.08
2018-09-17T20:03:41.051Z,71.06
2018-09-17T20:06:15.543Z,71.22
2018-09-17T20:08:45.082Z,71.31
2018-09-17T20:11:14.938Z,71.04
2018-09-17T20:13:44.392Z,70.98
2018-09-17T20:16:14.308Z,71.35
2018-09-17T20:18:43.742Z,71.36
2018-09-17T20:21:13.127Z,70.90
2018-09-17T20:23:42.925Z,71.57
2018-09-17T20:26:12.341Z,71.13
2018-09-17T20:28:42.019Z,71.62
2018-09-17T20:31:11.939Z,71.24
2018-09-17T20:33:41.409Z,71.82
2018-09-17T20:36:10.945Z,71.72
2018-09-17T20:38:40.656Z,71.87
2018-09-17T20:41:10.105Z,71.76
2018-09-17T20:43:39.573Z,71.68
2018-09-17T20:46:09.148Z,71.38
2018-09-17T20:48:38.567Z,71.51
2018-09-17T20:51:08.008Z,71.89
2018-09-17T20:53:37.694Z,71.65
2018-09-17T20:56:07.042Z,71.61
2018-09-17T20:58:36.610Z,71.89
2018-09-17T21:01:07.171Z,72.51
2018-09-17T21:03:36.464Z,72.22
2018-09-17T21:06:05.921Z,72.27
2018-09-17T21:08:35.758Z,71.79
2018-09-17T21:11:06.451Z,72.36
2018-09-17T21:13:35.815Z,71.62
2018-09-17T21:16:05.564Z,72.05
2018-09-17T21:18:35.370Z,72.15
2018-09-17T21:21:04.861Z,72.09
2018-09-17T21:23:34.469Z,72.14
2018-09-17T21:26:04.079Z,71.71
2018-09-17T21:28:33.547Z,71.94
2018-09-17T21:31:03.526Z,72.06
2018-09-17T21:33:33.121Z,71.50
2018-09-17T21:36:02.657Z,71.75
2018-09-17T21:38:32.138Z,71.16
2018-09-17T21:41:01.618Z,71.43
2018-09-17T21:43:30.915Z,71.62
2018-09-17T21:46:00.516Z,71.69
2018-09-17T21:48:30.155Z,71.65
2018-09-17T21:50:59.483Z,71.34
2018-09-17T21:53:28.988Z,72.17
2018-09-17T21:55:58.795Z,71.99
2018-09-17T21:58:28.407Z,72.05
2018-09-17T22:01:01.334Z,71.77
2018-09-17T22:03:32.294Z,71.91
2018-09-17T22:06:01.762Z,72.62
2018-09-17T22:08:31.424Z,72.96
2018-09-17T22:11:00.844Z,73.38
2018-09-17T22:13:30.361Z,73.93
2018-09-17T22:15:59.843Z,73.83
2018-09-17T22:18:29.467Z,74.16
2018-09-17T22:20:59.164Z,74.56
2018-09-17T22:23:28.946Z,74.08
2018-09-17T22:25:58.465Z,74.43
2018-09-17T22:28:28.051Z,74.97
2018-09-17T22:30:57.342Z,74.94
2018-09-17T22:33:26.742Z,75.49
2018-09-17T22:35:56.620Z,75.86
2018-09-17T22:38:26.269Z,76.23
2018-09-17T22:40:55.493Z,76.19
2018-09-17T22:43:25.258Z,76.54
2018-09-17T22:45:54.713Z,77.54
2018-09-17T22:48:24.169Z,77.27
2018-09-17T22:50:53.946Z,77.58
2018-09-17T22:53:23.627Z,77.52
2018-09-17T22:55:53.016Z,77.58
2018-09-17T22:58:22.854Z,77.62
2018-09-17T23:00:52.229Z,77.67
2018-09-17T23:03:21.439Z,77.79
2018-09-17T23:05:51.237Z,77.81
2018-09-17T23:08:21.772Z,77.94
2018-09-17T23:10:51.239Z,77.85
2018-09-17T23:13:21.219Z,78.09
2018-09-17T23:15:50.480Z,78.59
2018-09-17T23:18:19.767Z,78.70
2018-09-17T23:20:49.433Z,78.29
2018-09-17T23:23:19.176Z,78.74
2018-09-17T23:25:48.659Z,79.35
2018-09-17T23:28:18.180Z,78.99
2018-09-17T23:30:47.609Z,79.39
2018-09-17T23:33:17.072Z,79.75
2018-09-17T23:35:46.760Z,80.26
2018-09-17T23:38:16.144Z,79.68
2018-09-17T23:40:45.645Z,80.02
2018-09-17T23:43:15.216Z,79.62
2018-09-17T23:45:44.556Z,80.02
2018-09-17T23:48:13.956Z,79.56
2018-09-17T23:50:43.338Z,79.92
2018-09-17T23:53:12.741Z,79.26
2018-09-17T23:55:41.940Z,79.43
2018-09-17T23:58:11.494Z,79.39
